sensor_id;sensor_type;location;lat;lon;timestamp;P1;durP1;ratioP1;P2;durP2;ratioP2
7657;SDS011;8462;53.156;8.220;2023-08-24T00:02:09;4.13;;;1.97;;
7657;SDS011;8462;53.156;8.220;2023-08-24T00:04:37;4.03;;;2.07;;
7657;SDS011;8462;53.156;8.220;2023-08-24T00:07:04;5.10;;;2.27;;
7657;SDS011;8462;53.156;8.220;2023-08-24T00:09:31;2.43;;;1.93;;
7657;SDS011;8462;53.156;8.220;2023-08-24T00:11:58;2.40;;;1.90;;
7657;SDS011;8462;53.156;8.220;2023-08-24T00:14:27;2.40;;;2.07;;
7657;SDS011;8462;53.156;8.220;2023-08-24T00:16:53;3.40;;;2.13;;
7657;SDS011;8462;53.156;8.220;2023-08-24T00:19:20;4.60;;;2.00;;
7657;SDS011;8462;53.156;8.220;2023-08-24T00:21:47;2.73;;;1.90;;
7657;SDS011;8462;53.156;8.220;2023-08-24T00:24:14;7.83;;;4.13;;
7657;SDS011;8462;53.156;8.220;2023-08-24T00:26:41;4.97;;;3.67;;
7657;SDS011;8462;53.156;8.220;2023-08-24T00:29:08;2.73;;;2.17;;
7657;SDS011;8462;53.156;8.220;2023-08-24T00:31:36;3.57;;;2.70;;
7657;SDS011;8462;53.156;8.220;2023-08-24T00:34:03;8.40;;;3.30;;
7657;SDS011;8462;53.156;8.220;2023-08-24T00:36:30;4.07;;;2.90;;
7657;SDS011;8462;53.156;8.220;2023-08-24T00:38:58;7.60;;;3.13;;
7657;SDS011;8462;53.156;8.220;2023-08-24T00:41:24;3.80;;;2.73;;
7657;SDS011;8462;53.156;8.220;2023-08-24T00:43:51;4.13;;;2.83;;
7657;SDS011;8462;53.156;8.220;2023-08-24T00:46:18;3.77;;;2.83;;
7657;SDS011;8462;53.156;8.220;2023-08-24T00:48:49;4.73;;;3.13;;
7657;SDS011;8462;53.156;8.220;2023-08-24T00:51:17;6.53;;;2.83;;
7657;SDS011;8462;53.156;8.220;2023-08-24T00:53:44;6.57;;;2.97;;
7657;SDS011;8462;53.156;8.220;2023-08-24T00:56:12;7.60;;;2.70;;
7657;SDS011;8462;53.156;8.220;2023-08-24T00:58:39;4.00;;;2.73;;
7657;SDS011;8462;53.156;8.220;2023-08-24T01:01:06;4.23;;;3.00;;
7657;SDS011;8462;53.156;8.220;2023-08-24T01:03:33;4.73;;;3.00;;
7657;SDS011;8462;53.156;8.220;2023-08-24T01:06:02;4.37;;;3.20;;
7657;SDS011;8462;53.156;8.220;2023-08-24T01:08:29;5.73;;;3.23;;
7657;SDS011;8462;53.156;8.220;2023-08-24T01:10:57;5.27;;;3.63;;
7657;SDS011;8462;53.156;8.220;2023-08-24T01:13:30;4.50;;;3.10;;
7657;SDS011;8462;53.156;8.220;2023-08-24T01:16:04;5.27;;;3.10;;
7657;SDS011;8462;53.156;8.220;2023-08-24T01:18:34;6.00;;;3.13;;
7657;SDS011;8462;53.156;8.220;2023-08-24T01:21:04;8.03;;;2.90;;
7657;SDS011;8462;53.156;8.220;2023-08-24T01:23:34;4.87;;;3.07;;
7657;SDS011;8462;53.156;8.220;2023-08-24T01:26:11;6.67;;;3.47;;
7657;SDS011;8462;53.156;8.220;2023-08-24T01:28:39;4.93;;;3.20;;
7657;SDS011;8462;53.156;8.220;2023-08-24T01:31:07;4.03;;;3.17;;
7657;SDS011;8462;53.156;8.220;2023-08-24T01:33:34;7.57;;;3.63;;
7657;SDS011;8462;53.156;8.220;2023-08-24T01:36:01;5.67;;;3.07;;
7657;SDS011;8462;53.156;8.220;2023-08-24T01:38:30;5.37;;;3.63;;
7657;SDS011;8462;53.156;8.220;2023-08-24T01:40:59;5.80;;;3.23;;
7657;SDS011;8462;53.156;8.220;2023-08-24T01:43:36;5.47;;;3.73;;
7657;SDS011;8462;53.156;8.220;2023-08-24T01:46:07;4.80;;;3.60;;
7657;SDS011;8462;53.156;8.220;2023-08-24T01:48:34;5.03;;;3.67;;
7657;SDS011;8462;53.156;8.220;2023-08-24T01:51:02;6.13;;;3.60;;
7657;SDS011;8462;53.156;8.220;2023-08-24T01:53:31;6.70;;;3.40;;
7657;SDS011;8462;53.156;8.220;2023-08-24T01:55:58;6.33;;;3.40;;
7657;SDS011;8462;53.156;8.220;2023-08-24T01:58:25;5.27;;;3.40;;
7657;SDS011;8462;53.156;8.220;2023-08-24T02:00:53;5.27;;;3.77;;
7657;SDS011;8462;53.156;8.220;2023-08-24T02:03:20;8.27;;;3.60;;
7657;SDS011;8462;53.156;8.220;2023-08-24T02:05:47;4.47;;;3.00;;
7657;SDS011;8462;53.156;8.220;2023-08-24T02:08:14;6.37;;;3.67;;
7657;SDS011;8462;53.156;8.220;2023-08-24T02:10:40;3.53;;;2.90;;
7657;SDS011;8462;53.156;8.220;2023-08-24T02:13:07;3.93;;;3.30;;
7657;SDS011;8462;53.156;8.220;2023-08-24T02:15:34;5.37;;;3.73;;
7657;SDS011;8462;53.156;8.220;2023-08-24T02:18:05;4.90;;;2.97;;
7657;SDS011;8462;53.156;8.220;2023-08-24T02:20:34;3.73;;;3.20;;
7657;SDS011;8462;53.156;8.220;2023-08-24T02:23:02;4.20;;;3.33;;
7657;SDS011;8462;53.156;8.220;2023-08-24T02:25:29;4.80;;;2.80;;
7657;SDS011;8462;53.156;8.220;2023-08-24T02:27:56;2.93;;;2.70;;
7657;SDS011;8462;53.156;8.220;2023-08-24T02:30:23;3.97;;;2.80;;
7657;SDS011;8462;53.156;8.220;2023-08-24T02:32:51;5.80;;;2.73;;
7657;SDS011;8462;53.156;8.220;2023-08-24T02:35:19;6.93;;;3.00;;
7657;SDS011;8462;53.156;8.220;2023-08-24T02:37:46;7.83;;;4.50;;
7657;SDS011;8462;53.156;8.220;2023-08-24T02:40:14;4.73;;;2.70;;
7657;SDS011;8462;53.156;8.220;2023-08-24T02:42:41;4.30;;;2.70;;
7657;SDS011;8462;53.156;8.220;2023-08-24T02:45:08;4.17;;;2.60;;
7657;SDS011;8462;53.156;8.220;2023-08-24T02:47:37;5.23;;;2.63;;
7657;SDS011;8462;53.156;8.220;2023-08-24T02:50:04;5.43;;;3.50;;
7657;SDS011;8462;53.156;8.220;2023-08-24T02:52:35;5.53;;;3.90;;
7657;SDS011;8462;53.156;8.220;2023-08-24T02:55:03;7.20;;;3.60;;
7657;SDS011;8462;53.156;8.220;2023-08-24T02:57:30;4.40;;;3.63;;
7657;SDS011;8462;53.156;8.220;2023-08-24T02:59:57;4.33;;;3.77;;
7657;SDS011;8462;53.156;8.220;2023-08-24T03:02:24;6.03;;;4.10;;
7657;SDS011;8462;53.156;8.220;2023-08-24T03:04:51;6.30;;;4.30;;
7657;SDS011;8462;53.156;8.220;2023-08-24T03:07:17;5.70;;;4.13;;
7657;SDS011;8462;53.156;8.220;2023-08-24T03:09:46;9.13;;;4.70;;
7657;SDS011;8462;53.156;8.220;2023-08-24T03:12:12;6.37;;;4.30;;
7657;SDS011;8462;53.156;8.220;2023-08-24T03:14:39;7.27;;;4.17;;
7657;SDS011;8462;53.156;8.220;2023-08-24T03:17:07;5.87;;;4.40;;
7657;SDS011;8462;53.156;8.220;2023-08-24T03:19:34;5.67;;;4.07;;
7657;SDS011;8462;53.156;8.220;2023-08-24T03:22:01;8.63;;;4.67;;
7657;SDS011;8462;53.156;8.220;2023-08-24T03:24:28;7.00;;;4.27;;
7657;SDS011;8462;53.156;8.220;2023-08-24T03:26:56;7.10;;;4.37;;
7657;SDS011;8462;53.156;8.220;2023-08-24T03:29:24;6.33;;;4.50;;
7657;SDS011;8462;53.156;8.220;2023-08-24T03:31:52;5.43;;;4.43;;
7657;SDS011;8462;53.156;8.220;2023-08-24T03:34:19;6.07;;;3.90;;
7657;SDS011;8462;53.156;8.220;2023-08-24T03:36:46;5.23;;;3.90;;
7657;SDS011;8462;53.156;8.220;2023-08-24T03:39:13;9.10;;;5.37;;
7657;SDS011;8462;53.156;8.220;2023-08-24T03:41:43;7.67;;;5.37;;
7657;SDS011;8462;53.156;8.220;2023-08-24T03:44:11;9.30;;;5.67;;
7657;SDS011;8462;53.156;8.220;2023-08-24T03:46:38;8.07;;;5.27;;
7657;SDS011;8462;53.156;8.220;2023-08-24T03:49:05;9.70;;;5.30;;
7657;SDS011;8462;53.156;8.220;2023-08-24T03:51:31;7.30;;;5.77;;
7657;SDS011;8462;53.156;8.220;2023-08-24T03:53:59;11.03;;;6.57;;
7657;SDS011;8462;53.156;8.220;2023-08-24T03:56:26;8.73;;;5.73;;
7657;SDS011;8462;53.156;8.220;2023-08-24T03:58:53;13.13;;;6.43;;
7657;SDS011;8462;53.156;8.220;2023-08-24T04:01:21;9.17;;;5.70;;
7657;SDS011;8462;53.156;8.220;2023-08-24T04:03:49;11.83;;;5.50;;
7657;SDS011;8462;53.156;8.220;2023-08-24T04:06:17;6.73;;;5.00;;
7657;SDS011;8462;53.156;8.220;2023-08-24T04:08:45;7.17;;;5.10;;
7657;SDS011;8462;53.156;8.220;2023-08-24T04:11:12;11.40;;;5.77;;
7657;SDS011;8462;53.156;8.220;2023-08-24T04:13:38;6.97;;;5.50;;
7657;SDS011;8462;53.156;8.220;2023-08-24T04:16:05;8.87;;;5.13;;
7657;SDS011;8462;53.156;8.220;2023-08-24T04:18:34;7.67;;;4.87;;
7657;SDS011;8462;53.156;8.220;2023-08-24T04:21:00;9.33;;;5.33;;
7657;SDS011;8462;53.156;8.220;2023-08-24T04:23:27;11.37;;;6.03;;
7657;SDS011;8462;53.156;8.220;2023-08-24T04:25:54;8.13;;;5.00;;
7657;SDS011;8462;53.156;8.220;2023-08-24T04:28:21;9.37;;;5.70;;
7657;SDS011;8462;53.156;8.220;2023-08-24T04:30:49;7.00;;;5.77;;
7657;SDS011;8462;53.156;8.220;2023-08-24T04:33:16;9.37;;;5.73;;
7657;SDS011;8462;53.156;8.220;2023-08-24T04:35:46;7.33;;;4.83;;
7657;SDS011;8462;53.156;8.220;2023-08-24T04:38:14;8.50;;;5.40;;
7657;SDS011;8462;53.156;8.220;2023-08-24T04:40:48;9.43;;;6.63;;
7657;SDS011;8462;53.156;8.220;2023-08-24T04:43:16;10.67;;;6.80;;
7657;SDS011;8462;53.156;8.220;2023-08-24T04:45:45;11.33;;;6.53;;
7657;SDS011;8462;53.156;8.220;2023-08-24T04:48:13;11.70;;;6.60;;
7657;SDS011;8462;53.156;8.220;2023-08-24T04:50:41;10.27;;;6.50;;
7657;SDS011;8462;53.156;8.220;2023-08-24T04:53:11;13.27;;;6.80;;
7657;SDS011;8462;53.156;8.220;2023-08-24T04:55:39;10.37;;;6.83;;
7657;SDS011;8462;53.156;8.220;2023-08-24T04:58:06;15.73;;;9.10;;
7657;SDS011;8462;53.156;8.220;2023-08-24T05:00:34;13.87;;;8.70;;
7657;SDS011;8462;53.156;8.220;2023-08-24T05:03:01;10.07;;;7.13;;
7657;SDS011;8462;53.156;8.220;2023-08-24T05:05:28;14.90;;;9.67;;
7657;SDS011;8462;53.156;8.220;2023-08-24T05:07:56;13.07;;;7.83;;
7657;SDS011;8462;53.156;8.220;2023-08-24T05:10:24;10.90;;;6.90;;
7657;SDS011;8462;53.156;8.220;2023-08-24T05:12:52;8.93;;;6.67;;
7657;SDS011;8462;53.156;8.220;2023-08-24T05:15:19;10.77;;;6.97;;
7657;SDS011;8462;53.156;8.220;2023-08-24T05:17:46;16.00;;;7.43;;
7657;SDS011;8462;53.156;8.220;2023-08-24T05:20:12;10.93;;;7.97;;
7657;SDS011;8462;53.156;8.220;2023-08-24T05:22:39;12.53;;;7.77;;
7657;SDS011;8462;53.156;8.220;2023-08-24T05:25:07;11.87;;;8.00;;
7657;SDS011;8462;53.156;8.220;2023-08-24T05:27:36;11.80;;;7.40;;
7657;SDS011;8462;53.156;8.220;2023-08-24T05:30:03;11.03;;;8.13;;
7657;SDS011;8462;53.156;8.220;2023-08-24T05:32:31;12.93;;;7.40;;
7657;SDS011;8462;53.156;8.220;2023-08-24T05:34:59;15.33;;;7.80;;
7657;SDS011;8462;53.156;8.220;2023-08-24T05:37:26;13.90;;;8.23;;
7657;SDS011;8462;53.156;8.220;2023-08-24T05:39:53;12.00;;;8.20;;
7657;SDS011;8462;53.156;8.220;2023-08-24T05:42:19;13.60;;;7.93;;
7657;SDS011;8462;53.156;8.220;2023-08-24T05:44:48;13.63;;;7.77;;
7657;SDS011;8462;53.156;8.220;2023-08-24T05:47:14;12.87;;;7.53;;
7657;SDS011;8462;53.156;8.220;2023-08-24T05:49:41;10.60;;;7.47;;
7657;SDS011;8462;53.156;8.220;2023-08-24T05:52:08;11.40;;;7.13;;
7657;SDS011;8462;53.156;8.220;2023-08-24T05:54:36;12.73;;;8.53;;
7657;SDS011;8462;53.156;8.220;2023-08-24T05:57:03;10.63;;;7.53;;
7657;SDS011;8462;53.156;8.220;2023-08-24T05:59:30;11.63;;;7.23;;
7657;SDS011;8462;53.156;8.220;2023-08-24T06:01:58;9.77;;;6.20;;
7657;SDS011;8462;53.156;8.220;2023-08-24T06:04:25;14.97;;;6.80;;
7657;SDS011;8462;53.156;8.220;2023-08-24T06:06:52;9.27;;;6.03;;
7657;SDS011;8462;53.156;8.220;2023-08-24T06:09:18;7.20;;;5.03;;
7657;SDS011;8462;53.156;8.220;2023-08-24T06:11:46;7.20;;;5.27;;
7657;SDS011;8462;53.156;8.220;2023-08-24T06:14:13;5.80;;;4.53;;
7657;SDS011;8462;53.156;8.220;2023-08-24T06:16:40;11.87;;;5.20;;
7657;SDS011;8462;53.156;8.220;2023-08-24T06:19:08;4.60;;;3.70;;
7657;SDS011;8462;53.156;8.220;2023-08-24T06:21:35;6.77;;;4.17;;
7657;SDS011;8462;53.156;8.220;2023-08-24T06:24:02;7.57;;;4.40;;
7657;SDS011;8462;53.156;8.220;2023-08-24T06:26:30;4.00;;;3.40;;
7657;SDS011;8462;53.156;8.220;2023-08-24T06:28:56;5.68;;;3.55;;
7657;SDS011;8462;53.156;8.220;2023-08-24T06:31:23;5.53;;;3.30;;
7657;SDS011;8462;53.156;8.220;2023-08-24T06:33:50;4.40;;;2.90;;
7657;SDS011;8462;53.156;8.220;2023-08-24T06:36:19;4.85;;;2.90;;
7657;SDS011;8462;53.156;8.220;2023-08-24T06:38:46;4.68;;;2.67;;
7657;SDS011;8462;53.156;8.220;2023-08-24T06:41:13;2.65;;;2.28;;
7657;SDS011;8462;53.156;8.220;2023-08-24T06:43:40;5.88;;;3.53;;
7657;SDS011;8462;53.156;8.220;2023-08-24T06:46:07;8.75;;;3.78;;
7657;SDS011;8462;53.156;8.220;2023-08-24T06:48:34;4.63;;;2.88;;
7657;SDS011;8462;53.156;8.220;2023-08-24T06:51:02;7.32;;;3.35;;
7657;SDS011;8462;53.156;8.220;2023-08-24T06:53:30;6.88;;;3.63;;
7657;SDS011;8462;53.156;8.220;2023-08-24T06:55:57;6.85;;;2.80;;
7657;SDS011;8462;53.156;8.220;2023-08-24T06:58:24;5.72;;;3.28;;
7657;SDS011;8462;53.156;8.220;2023-08-24T07:00:51;5.78;;;3.38;;
7657;SDS011;8462;53.156;8.220;2023-08-24T07:03:19;6.40;;;3.47;;
7657;SDS011;8462;53.156;8.220;2023-08-24T07:05:46;6.03;;;3.03;;
7657;SDS011;8462;53.156;8.220;2023-08-24T07:08:13;9.00;;;3.17;;
7657;SDS011;8462;53.156;8.220;2023-08-24T07:10:41;5.93;;;2.78;;
7657;SDS011;8462;53.156;8.220;2023-08-24T07:13:08;9.23;;;3.13;;
7657;SDS011;8462;53.156;8.220;2023-08-24T07:15:35;4.15;;;2.75;;
7657;SDS011;8462;53.156;8.220;2023-08-24T07:18:02;3.53;;;2.67;;
7657;SDS011;8462;53.156;8.220;2023-08-24T07:20:32;4.35;;;2.67;;
7657;SDS011;8462;53.156;8.220;2023-08-24T07:22:59;5.60;;;2.30;;
7657;SDS011;8462;53.156;8.220;2023-08-24T07:25:26;4.50;;;2.40;;
7657;SDS011;8462;53.156;8.220;2023-08-24T07:27:55;4.72;;;2.67;;
7657;SDS011;8462;53.156;8.220;2023-08-24T07:30:23;4.90;;;2.97;;
7657;SDS011;8462;53.156;8.220;2023-08-24T07:32:51;3.92;;;2.60;;
7657;SDS011;8462;53.156;8.220;2023-08-24T07:35:20;3.90;;;2.83;;
7657;SDS011;8462;53.156;8.220;2023-08-24T07:37:49;5.53;;;2.55;;
7657;SDS011;8462;53.156;8.220;2023-08-24T07:40:17;4.90;;;2.75;;
7657;SDS011;8462;53.156;8.220;2023-08-24T07:42:44;4.57;;;2.40;;
7657;SDS011;8462;53.156;8.220;2023-08-24T07:45:13;5.13;;;2.60;;
7657;SDS011;8462;53.156;8.220;2023-08-24T07:47:40;6.80;;;2.70;;
7657;SDS011;8462;53.156;8.220;2023-08-24T07:50:08;3.10;;;2.40;;
7657;SDS011;8462;53.156;8.220;2023-08-24T07:52:36;3.37;;;2.63;;
7657;SDS011;8462;53.156;8.220;2023-08-24T07:55:04;5.03;;;3.20;;
7657;SDS011;8462;53.156;8.220;2023-08-24T07:57:32;3.03;;;2.50;;
7657;SDS011;8462;53.156;8.220;2023-08-24T07:59:59;3.43;;;2.73;;
7657;SDS011;8462;53.156;8.220;2023-08-24T08:02:39;5.27;;;2.93;;
7657;SDS011;8462;53.156;8.220;2023-08-24T08:05:06;4.17;;;2.40;;
7657;SDS011;8462;53.156;8.220;2023-08-24T08:07:33;5.50;;;2.60;;
7657;SDS011;8462;53.156;8.220;2023-08-24T08:10:00;2.73;;;2.27;;
7657;SDS011;8462;53.156;8.220;2023-08-24T08:12:27;2.37;;;1.93;;
7657;SDS011;8462;53.156;8.220;2023-08-24T08:14:57;5.10;;;2.50;;
7657;SDS011;8462;53.156;8.220;2023-08-24T08:17:24;5.40;;;2.53;;
7657;SDS011;8462;53.156;8.220;2023-08-24T08:19:55;3.90;;;2.80;;
7657;SDS011;8462;53.156;8.220;2023-08-24T08:22:22;7.40;;;2.20;;
7657;SDS011;8462;53.156;8.220;2023-08-24T08:24:50;2.43;;;1.83;;
7657;SDS011;8462;53.156;8.220;2023-08-24T08:27:22;2.30;;;1.80;;
7657;SDS011;8462;53.156;8.220;2023-08-24T08:29:51;3.23;;;2.00;;
7657;SDS011;8462;53.156;8.220;2023-08-24T08:32:18;6.67;;;2.10;;
7657;SDS011;8462;53.156;8.220;2023-08-24T08:34:47;4.43;;;2.20;;
7657;SDS011;8462;53.156;8.220;2023-08-24T08:37:19;4.77;;;2.13;;
7657;SDS011;8462;53.156;8.220;2023-08-24T08:39:46;5.87;;;3.70;;
7657;SDS011;8462;53.156;8.220;2023-08-24T08:42:13;2.53;;;1.90;;
7657;SDS011;8462;53.156;8.220;2023-08-24T08:44:40;2.33;;;1.67;;
7657;SDS011;8462;53.156;8.220;2023-08-24T08:47:08;2.40;;;1.53;;
7657;SDS011;8462;53.156;8.220;2023-08-24T08:49:37;3.57;;;1.50;;
7657;SDS011;8462;53.156;8.220;2023-08-24T08:52:05;6.30;;;1.50;;
7657;SDS011;8462;53.156;8.220;2023-08-24T08:54:33;3.80;;;1.80;;
7657;SDS011;8462;53.156;8.220;2023-08-24T08:57:00;2.97;;;1.60;;
7657;SDS011;8462;53.156;8.220;2023-08-24T08:59:29;3.07;;;1.63;;
7657;SDS011;8462;53.156;8.220;2023-08-24T09:01:56;2.60;;;1.77;;
7657;SDS011;8462;53.156;8.220;2023-08-24T09:04:26;2.30;;;1.90;;
7657;SDS011;8462;53.156;8.220;2023-08-24T09:06:53;4.38;;;1.80;;
7657;SDS011;8462;53.156;8.220;2023-08-24T09:09:21;4.07;;;2.03;;
7657;SDS011;8462;53.156;8.220;2023-08-24T09:11:50;4.97;;;2.08;;
7657;SDS011;8462;53.156;8.220;2023-08-24T09:14:17;3.95;;;2.75;;
7657;SDS011;8462;53.156;8.220;2023-08-24T09:16:44;5.57;;;2.40;;
7657;SDS011;8462;53.156;8.220;2023-08-24T09:19:11;3.65;;;2.13;;
7657;SDS011;8462;53.156;8.220;2023-08-24T09:21:39;4.03;;;1.92;;
7657;SDS011;8462;53.156;8.220;2023-08-24T09:24:07;5.65;;;2.38;;
7657;SDS011;8462;53.156;8.220;2023-08-24T09:26:35;4.00;;;1.92;;
7657;SDS011;8462;53.156;8.220;2023-08-24T09:29:12;2.83;;;2.53;;
7657;SDS011;8462;53.156;8.220;2023-08-24T09:31:40;3.40;;;2.10;;
7657;SDS011;8462;53.156;8.220;2023-08-24T09:34:09;5.45;;;2.22;;
7657;SDS011;8462;53.156;8.220;2023-08-24T09:36:36;4.22;;;2.47;;
7657;SDS011;8462;53.156;8.220;2023-08-24T09:39:04;4.32;;;2.33;;
7657;SDS011;8462;53.156;8.220;2023-08-24T09:41:38;4.82;;;2.50;;
7657;SDS011;8462;53.156;8.220;2023-08-24T09:44:05;4.72;;;2.03;;
7657;SDS011;8462;53.156;8.220;2023-08-24T09:46:34;3.28;;;2.20;;
7657;SDS011;8462;53.156;8.220;2023-08-24T09:49:04;4.03;;;2.50;;
7657;SDS011;8462;53.156;8.220;2023-08-24T09:51:32;4.35;;;2.47;;
7657;SDS011;8462;53.156;8.220;2023-08-24T09:54:01;3.92;;;2.38;;
7657;SDS011;8462;53.156;8.220;2023-08-24T09:56:31;4.25;;;2.47;;
7657;SDS011;8462;53.156;8.220;2023-08-24T09:59:02;4.75;;;2.83;;
7657;SDS011;8462;53.156;8.220;2023-08-24T10:01:37;3.70;;;2.80;;
7657;SDS011;8462;53.156;8.220;2023-08-24T10:04:07;5.43;;;2.95;;
7657;SDS011;8462;53.156;8.220;2023-08-24T10:06:37;5.38;;;2.58;;
7657;SDS011;8462;53.156;8.220;2023-08-24T10:09:06;5.10;;;2.50;;
7657;SDS011;8462;53.156;8.220;2023-08-24T10:11:36;2.92;;;2.17;;
7657;SDS011;8462;53.156;8.220;2023-08-24T10:14:18;3.88;;;2.88;;
7657;SDS011;8462;53.156;8.220;2023-08-24T10:16:50;3.50;;;2.65;;
7657;SDS011;8462;53.156;8.220;2023-08-24T10:19:20;5.82;;;3.22;;
7657;SDS011;8462;53.156;8.220;2023-08-24T10:21:48;3.53;;;2.20;;
7657;SDS011;8462;53.156;8.220;2023-08-24T10:24:16;4.65;;;2.33;;
7657;SDS011;8462;53.156;8.220;2023-08-24T10:26:46;4.45;;;2.45;;
7657;SDS011;8462;53.156;8.220;2023-08-24T10:29:13;5.68;;;3.10;;
7657;SDS011;8462;53.156;8.220;2023-08-24T10:31:42;3.65;;;2.60;;
7657;SDS011;8462;53.156;8.220;2023-08-24T10:34:11;6.82;;;2.88;;
7657;SDS011;8462;53.156;8.220;2023-08-24T10:36:38;6.85;;;2.70;;
7657;SDS011;8462;53.156;8.220;2023-08-24T10:39:06;4.40;;;2.50;;
7657;SDS011;8462;53.156;8.220;2023-08-24T10:44:33;4.20;;;3.00;;
7657;SDS011;8462;53.156;8.220;2023-08-24T10:47:08;4.90;;;3.20;;
7657;SDS011;8462;53.156;8.220;2023-08-24T10:49:40;3.78;;;2.67;;
7657;SDS011;8462;53.156;8.220;2023-08-24T10:52:18;5.03;;;2.95;;
7657;SDS011;8462;53.156;8.220;2023-08-24T10:54:46;4.40;;;2.50;;
7657;SDS011;8462;53.156;8.220;2023-08-24T10:57:18;4.53;;;2.88;;
7657;SDS011;8462;53.156;8.220;2023-08-24T10:59:56;5.22;;;2.47;;
7657;SDS011;8462;53.156;8.220;2023-08-24T11:02:25;4.30;;;2.67;;
7657;SDS011;8462;53.156;8.220;2023-08-24T11:07:54;5.57;;;2.97;;
7657;SDS011;8462;53.156;8.220;2023-08-24T11:10:23;6.03;;;3.30;;
7657;SDS011;8462;53.156;8.220;2023-08-24T11:15:38;6.18;;;3.15;;
7657;SDS011;8462;53.156;8.220;2023-08-24T11:20:59;5.93;;;3.28;;
7657;SDS011;8462;53.156;8.220;2023-08-24T11:23:28;7.90;;;2.80;;
7657;SDS011;8462;53.156;8.220;2023-08-24T11:25:56;5.25;;;3.67;;
7657;SDS011;8462;53.156;8.220;2023-08-24T11:28:26;5.47;;;2.83;;
7657;SDS011;8462;53.156;8.220;2023-08-24T11:30:53;5.40;;;3.03;;
7657;SDS011;8462;53.156;8.220;2023-08-24T11:33:28;6.47;;;3.10;;
7657;SDS011;8462;53.156;8.220;2023-08-24T11:35:58;4.85;;;3.10;;
7657;SDS011;8462;53.156;8.220;2023-08-24T11:38:37;4.63;;;2.88;;
7657;SDS011;8462;53.156;8.220;2023-08-24T11:41:10;5.35;;;3.00;;
7657;SDS011;8462;53.156;8.220;2023-08-24T11:43:38;6.25;;;3.25;;
7657;SDS011;8462;53.156;8.220;2023-08-24T11:46:07;4.22;;;3.10;;
7657;SDS011;8462;53.156;8.220;2023-08-24T11:48:37;4.10;;;3.55;;
7657;SDS011;8462;53.156;8.220;2023-08-24T11:51:09;4.72;;;3.05;;
7657;SDS011;8462;53.156;8.220;2023-08-24T11:53:41;5.20;;;3.10;;
7657;SDS011;8462;53.156;8.220;2023-08-24T11:56:09;4.47;;;3.15;;
7657;SDS011;8462;53.156;8.220;2023-08-24T11:58:38;4.38;;;2.60;;
7657;SDS011;8462;53.156;8.220;2023-08-24T12:01:08;6.03;;;3.25;;
7657;SDS011;8462;53.156;8.220;2023-08-24T12:03:39;4.10;;;3.20;;
7657;SDS011;8462;53.156;8.220;2023-08-24T12:06:11;4.25;;;3.08;;
7657;SDS011;8462;53.156;8.220;2023-08-24T12:08:40;4.20;;;2.60;;
7657;SDS011;8462;53.156;8.220;2023-08-24T12:11:12;4.53;;;2.80;;
7657;SDS011;8462;53.156;8.220;2023-08-24T12:13:43;4.35;;;2.90;;
7657;SDS011;8462;53.156;8.220;2023-08-24T12:16:12;5.05;;;2.85;;
7657;SDS011;8462;53.156;8.220;2023-08-24T12:18:48;3.47;;;2.63;;
7657;SDS011;8462;53.156;8.220;2023-08-24T12:21:20;3.55;;;2.13;;
7657;SDS011;8462;53.156;8.220;2023-08-24T12:23:57;7.53;;;3.42;;
7657;SDS011;8462;53.156;8.220;2023-08-24T12:26:25;2.70;;;2.47;;
7657;SDS011;8462;53.156;8.220;2023-08-24T12:28:52;4.50;;;3.05;;
7657;SDS011;8462;53.156;8.220;2023-08-24T12:31:19;5.57;;;3.00;;
7657;SDS011;8462;53.156;8.220;2023-08-24T12:33:58;4.30;;;2.67;;
7657;SDS011;8462;53.156;8.220;2023-08-24T12:36:28;5.50;;;3.42;;
7657;SDS011;8462;53.156;8.220;2023-08-24T12:38:55;7.22;;;3.53;;
7657;SDS011;8462;53.156;8.220;2023-08-24T12:41:23;3.42;;;2.60;;
7657;SDS011;8462;53.156;8.220;2023-08-24T12:43:50;6.18;;;4.07;;
7657;SDS011;8462;53.156;8.220;2023-08-24T12:46:18;6.00;;;2.95;;
7657;SDS011;8462;53.156;8.220;2023-08-24T12:48:44;4.82;;;3.35;;
7657;SDS011;8462;53.156;8.220;2023-08-24T12:51:12;6.68;;;3.00;;
7657;SDS011;8462;53.156;8.220;2023-08-24T12:53:42;3.33;;;2.60;;
7657;SDS011;8462;53.156;8.220;2023-08-24T12:56:09;3.53;;;3.22;;
7657;SDS011;8462;53.156;8.220;2023-08-24T12:58:36;5.45;;;3.00;;
7657;SDS011;8462;53.156;8.220;2023-08-24T13:01:03;5.20;;;3.25;;
7657;SDS011;8462;53.156;8.220;2023-08-24T13:03:30;4.57;;;2.63;;
7657;SDS011;8462;53.156;8.220;2023-08-24T13:05:57;5.32;;;2.90;;
7657;SDS011;8462;53.156;8.220;2023-08-24T13:08:24;6.55;;;2.97;;
7657;SDS011;8462;53.156;8.220;2023-08-24T13:10:53;3.17;;;2.60;;
7657;SDS011;8462;53.156;8.220;2023-08-24T13:13:20;4.40;;;2.47;;
7657;SDS011;8462;53.156;8.220;2023-08-24T13:15:48;4.72;;;2.38;;
7657;SDS011;8462;53.156;8.220;2023-08-24T13:18:16;6.30;;;2.80;;
7657;SDS011;8462;53.156;8.220;2023-08-24T13:20:43;4.55;;;2.30;;
7657;SDS011;8462;53.156;8.220;2023-08-24T13:23:10;5.38;;;2.63;;
7657;SDS011;8462;53.156;8.220;2023-08-24T13:25:37;3.15;;;2.08;;
7657;SDS011;8462;53.156;8.220;2023-08-24T13:28:05;5.15;;;2.63;;
7657;SDS011;8462;53.156;8.220;2023-08-24T13:30:32;3.08;;;2.30;;
7657;SDS011;8462;53.156;8.220;2023-08-24T13:32:59;3.10;;;2.45;;
7657;SDS011;8462;53.156;8.220;2023-08-24T13:35:26;2.58;;;2.30;;
7657;SDS011;8462;53.156;8.220;2023-08-24T13:37:53;4.90;;;2.47;;
7657;SDS011;8462;53.156;8.220;2023-08-24T13:40:21;3.40;;;2.70;;
7657;SDS011;8462;53.156;8.220;2023-08-24T13:42:47;4.10;;;2.65;;
7657;SDS011;8462;53.156;8.220;2023-08-24T13:45:16;6.15;;;3.40;;
7657;SDS011;8462;53.156;8.220;2023-08-24T13:47:44;5.55;;;2.92;;
7657;SDS011;8462;53.156;8.220;2023-08-24T13:50:12;3.60;;;2.53;;
7657;SDS011;8462;53.156;8.220;2023-08-24T13:52:39;5.13;;;2.60;;
7657;SDS011;8462;53.156;8.220;2023-08-24T13:55:07;4.10;;;2.58;;
7657;SDS011;8462;53.156;8.220;2023-08-24T13:57:34;4.72;;;2.65;;
7657;SDS011;8462;53.156;8.220;2023-08-24T14:00:01;4.32;;;2.95;;
7657;SDS011;8462;53.156;8.220;2023-08-24T14:02:39;3.85;;;3.30;;
7657;SDS011;8462;53.156;8.220;2023-08-24T14:05:06;4.53;;;2.78;;
7657;SDS011;8462;53.156;8.220;2023-08-24T14:07:34;4.38;;;2.95;;
7657;SDS011;8462;53.156;8.220;2023-08-24T14:10:01;6.80;;;3.08;;
7657;SDS011;8462;53.156;8.220;2023-08-24T14:12:28;6.20;;;2.75;;
7657;SDS011;8462;53.156;8.220;2023-08-24T14:14:55;4.20;;;2.35;;
7657;SDS011;8462;53.156;8.220;2023-08-24T14:17:24;6.20;;;2.67;;
7657;SDS011;8462;53.156;8.220;2023-08-24T14:19:52;7.90;;;3.30;;
7657;SDS011;8462;53.156;8.220;2023-08-24T14:22:19;4.05;;;2.90;;
7657;SDS011;8462;53.156;8.220;2023-08-24T14:24:46;5.57;;;3.60;;
7657;SDS011;8462;53.156;8.220;2023-08-24T14:27:12;3.72;;;2.50;;
7657;SDS011;8462;53.156;8.220;2023-08-24T14:29:39;3.47;;;2.40;;
7657;SDS011;8462;53.156;8.220;2023-08-24T14:32:06;2.65;;;2.30;;
7657;SDS011;8462;53.156;8.220;2023-08-24T14:34:33;3.13;;;2.55;;
7657;SDS011;8462;53.156;8.220;2023-08-24T14:37:02;5.57;;;3.45;;
7657;SDS011;8462;53.156;8.220;2023-08-24T14:39:29;7.95;;;2.67;;
7657;SDS011;8462;53.156;8.220;2023-08-24T14:41:55;2.33;;;2.10;;
7657;SDS011;8462;53.156;8.220;2023-08-24T14:44:22;3.78;;;2.85;;
7657;SDS011;8462;53.156;8.220;2023-08-24T14:46:50;3.22;;;2.50;;
7657;SDS011;8462;53.156;8.220;2023-08-24T14:49:17;4.00;;;2.30;;
7657;SDS011;8462;53.156;8.220;2023-08-24T14:51:44;4.60;;;3.05;;
7657;SDS011;8462;53.156;8.220;2023-08-24T14:54:13;3.40;;;2.22;;
7657;SDS011;8462;53.156;8.220;2023-08-24T14:56:41;3.40;;;2.35;;
7657;SDS011;8462;53.156;8.220;2023-08-24T14:59:08;3.65;;;2.72;;
7657;SDS011;8462;53.156;8.220;2023-08-24T15:01:35;2.75;;;1.90;;
7657;SDS011;8462;53.156;8.220;2023-08-24T15:04:02;5.63;;;2.50;;
7657;SDS011;8462;53.156;8.220;2023-08-24T15:06:29;4.65;;;2.60;;
7657;SDS011;8462;53.156;8.220;2023-08-24T15:08:56;3.45;;;2.75;;
7657;SDS011;8462;53.156;8.220;2023-08-24T15:11:25;3.60;;;2.42;;
7657;SDS011;8462;53.156;8.220;2023-08-24T15:13:53;2.92;;;2.33;;
7657;SDS011;8462;53.156;8.220;2023-08-24T15:16:20;4.05;;;2.47;;
7657;SDS011;8462;53.156;8.220;2023-08-24T15:18:47;3.83;;;2.63;;
7657;SDS011;8462;53.156;8.220;2023-08-24T15:21:13;2.97;;;2.53;;
7657;SDS011;8462;53.156;8.220;2023-08-24T15:23:41;5.10;;;2.53;;
7657;SDS011;8462;53.156;8.220;2023-08-24T15:26:09;4.32;;;2.75;;
7657;SDS011;8462;53.156;8.220;2023-08-24T15:28:38;4.30;;;2.53;;
7657;SDS011;8462;53.156;8.220;2023-08-24T15:31:33;3.05;;;2.22;;
7657;SDS011;8462;53.156;8.220;2023-08-24T15:34:00;5.55;;;3.08;;